sensor_id;sensor_type;location;lat;lon;timestamp;temperature;humidity
71672;DHT22;67659;45.554;11.812;2023-04-24T00:01:49;23.20;74.40
71672;DHT22;67659;45.554;11.812;2023-04-24T00:04:15;23.20;74.40
71672;DHT22;67659;45.554;11.812;2023-04-24T00:06:43;23.20;74.50
71672;DHT22;67659;45.554;11.812;2023-04-24T00:09:09;23.20;74.40
71672;DHT22;67659;45.554;11.812;2023-04-24T00:11:36;23.10;74.70
71672;DHT22;67659;45.554;11.812;2023-04-24T00:14:02;23.10;74.40
71672;DHT22;67659;45.554;11.812;2023-04-24T00:16:28;23.10;74.10
71672;DHT22;67659;45.554;11.812;2023-04-24T00:18:54;23.10;74.20
71672;DHT22;67659;45.554;11.812;2023-04-24T00:21:21;23.20;74.30
71672;DHT22;67659;45.554;11.812;2023-04-24T00:23:48;23.10;74.20
71672;DHT22;67659;45.554;11.812;2023-04-24T00:26:14;23.20;74.20
71672;DHT22;67659;45.554;11.812;2023-04-24T00:28:39;23.20;74.40
71672;DHT22;67659;45.554;11.812;2023-04-24T00:31:05;23.20;74.40
71672;DHT22;67659;45.554;11.812;2023-04-24T00:33:31;23.20;74.30
71672;DHT22;67659;45.554;11.812;2023-04-24T00:35:58;23.10;74.50
71672;DHT22;67659;45.554;11.812;2023-04-24T00:38:24;23.20;74.30
71672;DHT22;67659;45.554;11.812;2023-04-24T00:40:50;23.10;74.20
71672;DHT22;67659;45.554;11.812;2023-04-24T00:43:16;23.20;74.30
71672;DHT22;67659;45.554;11.812;2023-04-24T00:45:43;23.20;74.20
71672;DHT22;67659;45.554;11.812;2023-04-24T00:48:09;23.20;74.40
71672;DHT22;67659;45.554;11.812;2023-04-24T00:50:37;23.10;74.30
71672;DHT22;67659;45.554;11.812;2023-04-24T00:53:03;23.10;74.40
71672;DHT22;67659;45.554;11.812;2023-04-24T00:55:30;23.20;74.20
71672;DHT22;67659;45.554;11.812;2023-04-24T00:57:55;23.10;74.30
71672;DHT22;67659;45.554;11.812;2023-04-24T01:00:22;23.10;74.30
71672;DHT22;67659;45.554;11.812;2023-04-24T01:02:48;23.10;74.10
71672;DHT22;67659;45.554;11.812;2023-04-24T01:05:15;23.20;74.40
71672;DHT22;67659;45.554;11.812;2023-04-24T01:07:44;23.20;74.10
71672;DHT22;67659;45.554;11.812;2023-04-24T01:10:11;23.10;74.40
71672;DHT22;67659;45.554;11.812;2023-04-24T01:12:38;23.10;74.40
71672;DHT22;67659;45.554;11.812;2023-04-24T01:15:04;23.20;74.30
71672;DHT22;67659;45.554;11.812;2023-04-24T01:17:32;23.20;74.30
71672;DHT22;67659;45.554;11.812;2023-04-24T01:19:58;23.20;74.20
71672;DHT22;67659;45.554;11.812;2023-04-24T01:22:25;23.10;74.10
71672;DHT22;67659;45.554;11.812;2023-04-24T01:24:52;23.10;74.20
71672;DHT22;67659;45.554;11.812;2023-04-24T01:27:19;23.10;74.40
71672;DHT22;67659;45.554;11.812;2023-04-24T01:29:46;23.10;74.30
71672;DHT22;67659;45.554;11.812;2023-04-24T01:32:14;23.10;74.30
71672;DHT22;67659;45.554;11.812;2023-04-24T01:34:42;23.10;74.20
71672;DHT22;67659;45.554;11.812;2023-04-24T01:37:08;23.10;74.40
71672;DHT22;67659;45.554;11.812;2023-04-24T01:39:34;23.10;74.40
71672;DHT22;67659;45.554;11.812;2023-04-24T01:42:00;23.10;74.40
71672;DHT22;67659;45.554;11.812;2023-04-24T01:44:28;23.20;74.30
71672;DHT22;67659;45.554;11.812;2023-04-24T01:46:55;23.10;74.20
71672;DHT22;67659;45.554;11.812;2023-04-24T01:49:21;23.20;74.30
71672;DHT22;67659;45.554;11.812;2023-04-24T01:51:47;23.10;74.10
71672;DHT22;67659;45.554;11.812;2023-04-24T01:54:13;23.10;74.40
71672;DHT22;67659;45.554;11.812;2023-04-24T01:56:41;23.00;74.20
71672;DHT22;67659;45.554;11.812;2023-04-24T01:59:09;23.10;74.30
71672;DHT22;67659;45.554;11.812;2023-04-24T02:01:36;23.10;74.50
71672;DHT22;67659;45.554;11.812;2023-04-24T02:04:04;23.10;74.30
71672;DHT22;67659;45.554;11.812;2023-04-24T02:06:30;23.10;74.10
71672;DHT22;67659;45.554;11.812;2023-04-24T02:08:57;23.10;74.30
71672;DHT22;67659;45.554;11.812;2023-04-24T02:11:23;23.10;74.30
71672;DHT22;67659;45.554;11.812;2023-04-24T02:13:49;23.10;74.40
71672;DHT22;67659;45.554;11.812;2023-04-24T02:16:16;23.10;74.30
71672;DHT22;67659;45.554;11.812;2023-04-24T02:18:41;23.10;74.40
71672;DHT22;67659;45.554;11.812;2023-04-24T02:21:07;23.10;74.30
71672;DHT22;67659;45.554;11.812;2023-04-24T02:23:33;23.10;74.40
71672;DHT22;67659;45.554;11.812;2023-04-24T02:25:59;23.10;74.20
71672;DHT22;67659;45.554;11.812;2023-04-24T02:28:24;23.10;74.10
71672;DHT22;67659;45.554;11.812;2023-04-24T02:30:50;23.10;74.50
71672;DHT22;67659;45.554;11.812;2023-04-24T02:33:16;23.10;74.30
71672;DHT22;67659;45.554;11.812;2023-04-24T02:35:42;23.10;74.20
71672;DHT22;67659;45.554;11.812;2023-04-24T02:38:08;23.10;74.40
71672;DHT22;67659;45.554;11.812;2023-04-24T02:40:34;23.00;74.30
71672;DHT22;67659;45.554;11.812;2023-04-24T02:42:59;23.00;74.60
71672;DHT22;67659;45.554;11.812;2023-04-24T02:45:25;23.10;74.20
71672;DHT22;67659;45.554;11.812;2023-04-24T02:47:51;23.10;74.30
71672;DHT22;67659;45.554;11.812;2023-04-24T02:50:17;23.00;74.30
71672;DHT22;67659;45.554;11.812;2023-04-24T02:52:42;23.00;74.30
71672;DHT22;67659;45.554;11.812;2023-04-24T02:55:08;23.10;74.20
71672;DHT22;67659;45.554;11.812;2023-04-24T02:57:34;23.10;74.30
71672;DHT22;67659;45.554;11.812;2023-04-24T03:00:00;23.00;74.30
71672;DHT22;67659;45.554;11.812;2023-04-24T03:02:26;23.00;74.50
71672;DHT22;67659;45.554;11.812;2023-04-24T03:04:52;23.10;74.40
71672;DHT22;67659;45.554;11.812;2023-04-24T03:07:18;23.10;74.40
71672;DHT22;67659;45.554;11.812;2023-04-24T03:09:46;23.00;74.30
71672;DHT22;67659;45.554;11.812;2023-04-24T03:12:12;23.00;74.40
71672;DHT22;67659;45.554;11.812;2023-04-24T03:14:38;23.00;74.60
71672;DHT22;67659;45.554;11.812;2023-04-24T03:17:04;23.10;74.50
71672;DHT22;67659;45.554;11.812;2023-04-24T03:19:30;23.10;74.50
71672;DHT22;67659;45.554;11.812;2023-04-24T03:21:56;23.00;74.20
71672;DHT22;67659;45.554;11.812;2023-04-24T03:24:21;23.00;74.60
71672;DHT22;67659;45.554;11.812;2023-04-24T03:26:48;23.00;74.50
71672;DHT22;67659;45.554;11.812;2023-04-24T03:29:13;23.00;74.20
71672;DHT22;67659;45.554;11.812;2023-04-24T03:31:39;23.10;74.40
71672;DHT22;67659;45.554;11.812;2023-04-24T03:34:05;23.00;74.40
71672;DHT22;67659;45.554;11.812;2023-04-24T03:36:30;23.00;74.30
71672;DHT22;67659;45.554;11.812;2023-04-24T03:38:57;23.00;74.30
71672;DHT22;67659;45.554;11.812;2023-04-24T03:41:22;23.00;74.40
71672;DHT22;67659;45.554;11.812;2023-04-24T03:43:48;23.00;74.50
71672;DHT22;67659;45.554;11.812;2023-04-24T03:46:14;23.00;74.50
71672;DHT22;67659;45.554;11.812;2023-04-24T03:48:40;23.10;74.40
71672;DHT22;67659;45.554;11.812;2023-04-24T03:51:06;23.10;74.40
71672;DHT22;67659;45.554;11.812;2023-04-24T03:53:32;23.00;74.40
71672;DHT22;67659;45.554;11.812;2023-04-24T03:55:57;23.00;74.40
71672;DHT22;67659;45.554;11.812;2023-04-24T03:58:23;23.00;74.50
71672;DHT22;67659;45.554;11.812;2023-04-24T04:00:49;23.00;74.30
71672;DHT22;67659;45.554;11.812;2023-04-24T04:03:16;23.00;74.30
71672;DHT22;67659;45.554;11.812;2023-04-24T04:05:41;23.00;74.40
71672;DHT22;67659;45.554;11.812;2023-04-24T04:08:07;23.00;74.10
71672;DHT22;67659;45.554;11.812;2023-04-24T04:10:33;23.00;74.20
71672;DHT22;67659;45.554;11.812;2023-04-24T04:12:58;23.00;74.30
71672;DHT22;67659;45.554;11.812;2023-04-24T04:15:25;23.00;74.40
71672;DHT22;67659;45.554;11.812;2023-04-24T04:17:51;23.00;74.50
71672;DHT22;67659;45.554;11.812;2023-04-24T04:20:17;23.00;74.60
71672;DHT22;67659;45.554;11.812;2023-04-24T04:22:42;23.00;74.50
71672;DHT22;67659;45.554;11.812;2023-04-24T04:25:08;23.00;74.20
71672;DHT22;67659;45.554;11.812;2023-04-24T04:27:34;23.10;74.40
71672;DHT22;67659;45.554;11.812;2023-04-24T04:30:01;22.90;74.40
71672;DHT22;67659;45.554;11.812;2023-04-24T04:32:34;23.00;74.40
71672;DHT22;67659;45.554;11.812;2023-04-24T04:35:00;22.90;74.60
71672;DHT22;67659;45.554;11.812;2023-04-24T04:37:31;23.00;74.40
71672;DHT22;67659;45.554;11.812;2023-04-24T04:39:59;22.90;74.60
71672;DHT22;67659;45.554;11.812;2023-04-24T04:42:26;23.00;74.70
71672;DHT22;67659;45.554;11.812;2023-04-24T04:44:53;23.00;74.40
71672;DHT22;67659;45.554;11.812;2023-04-24T04:47:21;23.00;74.60
71672;DHT22;67659;45.554;11.812;2023-04-24T04:49:48;23.00;74.40
71672;DHT22;67659;45.554;11.812;2023-04-24T04:52:14;22.90;74.30
71672;DHT22;67659;45.554;11.812;2023-04-24T04:54:42;23.00;74.50
71672;DHT22;67659;45.554;11.812;2023-04-24T04:57:08;22.90;74.30
71672;DHT22;67659;45.554;11.812;2023-04-24T04:59:34;23.00;74.50
71672;DHT22;67659;45.554;11.812;2023-04-24T05:02:00;23.00;74.50
71672;DHT22;67659;45.554;11.812;2023-04-24T05:04:26;22.90;74.40
71672;DHT22;67659;45.554;11.812;2023-04-24T05:06:52;23.00;74.70
71672;DHT22;67659;45.554;11.812;2023-04-24T05:09:18;23.00;74.70
71672;DHT22;67659;45.554;11.812;2023-04-24T05:11:45;23.00;74.60
71672;DHT22;67659;45.554;11.812;2023-04-24T05:14:12;22.90;74.80
71672;DHT22;67659;45.554;11.812;2023-04-24T05:16:38;22.90;74.60
71672;DHT22;67659;45.554;11.812;2023-04-24T05:19:05;22.90;74.70
71672;DHT22;67659;45.554;11.812;2023-04-24T05:21:31;23.00;74.70
71672;DHT22;67659;45.554;11.812;2023-04-24T05:23:57;22.90;74.70
71672;DHT22;67659;45.554;11.812;2023-04-24T05:26:23;22.90;74.60
71672;DHT22;67659;45.554;11.812;2023-04-24T05:28:49;23.00;74.80
71672;DHT22;67659;45.554;11.812;2023-04-24T05:31:15;22.90;74.50
71672;DHT22;67659;45.554;11.812;2023-04-24T05:33:43;23.00;74.80
71672;DHT22;67659;45.554;11.812;2023-04-24T05:36:09;22.90;74.70
71672;DHT22;67659;45.554;11.812;2023-04-24T05:38:34;23.00;74.80
71672;DHT22;67659;45.554;11.812;2023-04-24T05:41:00;22.90;74.90
71672;DHT22;67659;45.554;11.812;2023-04-24T05:43:26;23.00;74.90
71672;DHT22;67659;45.554;11.812;2023-04-24T05:45:53;22.90;74.60
71672;DHT22;67659;45.554;11.812;2023-04-24T05:48:19;23.00;74.90
71672;DHT22;67659;45.554;11.812;2023-04-24T05:50:45;22.90;75.10
71672;DHT22;67659;45.554;11.812;2023-04-24T05:53:13;22.90;74.80
71672;DHT22;67659;45.554;11.812;2023-04-24T05:55:39;22.90;74.90
71672;DHT22;67659;45.554;11.812;2023-04-24T05:58:06;22.90;74.90
71672;DHT22;67659;45.554;11.812;2023-04-24T06:00:34;22.90;74.80
71672;DHT22;67659;45.554;11.812;2023-04-24T06:03:02;22.90;74.90
71672;DHT22;67659;45.554;11.812;2023-04-24T06:05:29;22.90;74.80
71672;DHT22;67659;45.554;11.812;2023-04-24T06:07:55;22.90;75.10
71672;DHT22;67659;45.554;11.812;2023-04-24T06:10:22;23.00;75.00
71672;DHT22;67659;45.554;11.812;2023-04-24T06:12:47;23.00;74.90
71672;DHT22;67659;45.554;11.812;2023-04-24T06:15:13;22.90;74.90
71672;DHT22;67659;45.554;11.812;2023-04-24T06:17:39;23.00;74.90
71672;DHT22;67659;45.554;11.812;2023-04-24T06:20:06;23.00;74.70
71672;DHT22;67659;45.554;11.812;2023-04-24T06:22:33;22.90;74.80
71672;DHT22;67659;45.554;11.812;2023-04-24T06:24:59;23.00;75.00
71672;DHT22;67659;45.554;11.812;2023-04-24T06:27:26;22.90;75.00
71672;DHT22;67659;45.554;11.812;2023-04-24T06:29:52;23.00;75.00
71672;DHT22;67659;45.554;11.812;2023-04-24T06:32:22;23.00;74.90
71672;DHT22;67659;45.554;11.812;2023-04-24T06:34:48;23.00;74.80
71672;DHT22;67659;45.554;11.812;2023-04-24T06:37:14;23.00;74.90
71672;DHT22;67659;45.554;11.812;2023-04-24T06:39:41;23.00;74.80
71672;DHT22;67659;45.554;11.812;2023-04-24T06:42:07;23.00;75.00
71672;DHT22;67659;45.554;11.812;2023-04-24T06:44:35;23.00;75.10
71672;DHT22;67659;45.554;11.812;2023-04-24T06:47:07;22.90;74.90
71672;DHT22;67659;45.554;11.812;2023-04-24T06:49:36;22.90;75.00
71672;DHT22;67659;45.554;11.812;2023-04-24T06:52:03;23.00;75.00
71672;DHT22;67659;45.554;11.812;2023-04-24T06:54:30;22.90;75.00
71672;DHT22;67659;45.554;11.812;2023-04-24T06:56:56;22.90;75.10
71672;DHT22;67659;45.554;11.812;2023-04-24T06:59:24;23.00;75.30
71672;DHT22;67659;45.554;11.812;2023-04-24T07:01:50;23.00;75.20
71672;DHT22;67659;45.554;11.812;2023-04-24T07:04:17;22.90;75.10
71672;DHT22;67659;45.554;11.812;2023-04-24T07:06:43;23.00;75.20
71672;DHT22;67659;45.554;11.812;2023-04-24T07:09:11;22.90;75.50
71672;DHT22;67659;45.554;11.812;2023-04-24T07:11:39;23.00;75.10
71672;DHT22;67659;45.554;11.812;2023-04-24T07:14:06;23.00;75.30
71672;DHT22;67659;45.554;11.812;2023-04-24T07:16:32;22.90;75.30
71672;DHT22;67659;45.554;11.812;2023-04-24T07:18:58;22.90;75.10
71672;DHT22;67659;45.554;11.812;2023-04-24T07:21:24;22.90;75.40
71672;DHT22;67659;45.554;11.812;2023-04-24T07:23:51;22.90;75.40
71672;DHT22;67659;45.554;11.812;2023-04-24T07:26:16;22.90;75.40
71672;DHT22;67659;45.554;11.812;2023-04-24T07:28:42;22.90;75.10
71672;DHT22;67659;45.554;11.812;2023-04-24T07:31:10;22.90;75.20
71672;DHT22;67659;45.554;11.812;2023-04-24T07:33:37;22.90;75.50
71672;DHT22;67659;45.554;11.812;2023-04-24T07:36:03;23.00;75.60
71672;DHT22;67659;45.554;11.812;2023-04-24T07:38:30;23.00;75.50
71672;DHT22;67659;45.554;11.812;2023-04-24T07:40:57;22.90;75.60
71672;DHT22;67659;45.554;11.812;2023-04-24T07:43:23;22.90;75.50
71672;DHT22;67659;45.554;11.812;2023-04-24T07:45:50;23.00;75.80
71672;DHT22;67659;45.554;11.812;2023-04-24T07:48:16;22.90;75.40
71672;DHT22;67659;45.554;11.812;2023-04-24T07:50:44;22.90;75.50
71672;DHT22;67659;45.554;11.812;2023-04-24T07:53:10;22.90;75.50
71672;DHT22;67659;45.554;11.812;2023-04-24T07:55:36;22.90;75.70
71672;DHT22;67659;45.554;11.812;2023-04-24T07:58:02;22.90;75.60
71672;DHT22;67659;45.554;11.812;2023-04-24T08:00:28;22.90;75.40
71672;DHT22;67659;45.554;11.812;2023-04-24T08:02:53;23.00;75.50
71672;DHT22;67659;45.554;11.812;2023-04-24T08:05:20;22.90;75.30
71672;DHT22;67659;45.554;11.812;2023-04-24T08:07:46;22.90;75.40
71672;DHT22;67659;45.554;11.812;2023-04-24T08:10:16;22.90;75.30
71672;DHT22;67659;45.554;11.812;2023-04-24T08:12:42;22.90;75.30
71672;DHT22;67659;45.554;11.812;2023-04-24T08:15:08;23.00;75.50
71672;DHT22;67659;45.554;11.812;2023-04-24T08:17:35;22.90;75.30
71672;DHT22;67659;45.554;11.812;2023-04-24T08:20:02;22.90;75.50
71672;DHT22;67659;45.554;11.812;2023-04-24T08:22:28;22.90;75.60
71672;DHT22;67659;45.554;11.812;2023-04-24T08:24:54;23.00;75.60
71672;DHT22;67659;45.554;11.812;2023-04-24T08:27:22;23.00;75.50
71672;DHT22;67659;45.554;11.812;2023-04-24T08:29:49;22.90;75.40
71672;DHT22;67659;45.554;11.812;2023-04-24T08:32:15;23.00;75.60
71672;DHT22;67659;45.554;11.812;2023-04-24T08:34:41;23.00;75.30
71672;DHT22;67659;45.554;11.812;2023-04-24T08:37:08;22.90;75.70
71672;DHT22;67659;45.554;11.812;2023-04-24T08:39:34;22.90;75.70
71672;DHT22;67659;45.554;11.812;2023-04-24T08:42:02;23.00;75.40
71672;DHT22;67659;45.554;11.812;2023-04-24T08:44:32;22.90;75.70
71672;DHT22;67659;45.554;11.812;2023-04-24T08:46:58;23.00;75.40
71672;DHT22;67659;45.554;11.812;2023-04-24T08:49:25;22.90;75.60
71672;DHT22;67659;45.554;11.812;2023-04-24T08:51:53;22.90;75.50
71672;DHT22;67659;45.554;11.812;2023-04-24T08:56:59;22.90;75.50
71672;DHT22;67659;45.554;11.812;2023-04-24T08:59:28;23.00;75.80
71672;DHT22;67659;45.554;11.812;2023-04-24T09:01:56;23.00;75.80
71672;DHT22;67659;45.554;11.812;2023-04-24T09:04:23;23.00;75.90
71672;DHT22;67659;45.554;11.812;2023-04-24T09:06:53;22.90;75.90
71672;DHT22;67659;45.554;11.812;2023-04-24T09:09:21;23.00;75.50
71672;DHT22;67659;45.554;11.812;2023-04-24T09:11:50;23.00;75.50
71672;DHT22;67659;45.554;11.812;2023-04-24T09:14:16;23.00;75.80
71672;DHT22;67659;45.554;11.812;2023-04-24T09:16:42;22.90;75.70
71672;DHT22;67659;45.554;11.812;2023-04-24T09:19:08;23.00;75.90
71672;DHT22;67659;45.554;11.812;2023-04-24T09:21:35;23.00;75.50
71672;DHT22;67659;45.554;11.812;2023-04-24T09:24:04;23.00;75.80
71672;DHT22;67659;45.554;11.812;2023-04-24T09:26:31;23.00;75.60
71672;DHT22;67659;45.554;11.812;2023-04-24T09:28:58;23.10;75.40
71672;DHT22;67659;45.554;11.812;2023-04-24T09:31:27;23.00;75.60
71672;DHT22;67659;45.554;11.812;2023-04-24T09:33:57;23.00;75.50
71672;DHT22;67659;45.554;11.812;2023-04-24T09:36:32;23.00;75.50
71672;DHT22;67659;45.554;11.812;2023-04-24T09:39:01;23.10;75.50
71672;DHT22;67659;45.554;11.812;2023-04-24T09:41:27;23.10;75.70
71672;DHT22;67659;45.554;11.812;2023-04-24T09:43:55;23.10;75.70
71672;DHT22;67659;45.554;11.812;2023-04-24T09:46:28;23.00;75.60
71672;DHT22;67659;45.554;11.812;2023-04-24T09:48:55;23.20;75.70
71672;DHT22;67659;45.554;11.812;2023-04-24T09:51:34;23.10;75.50
71672;DHT22;67659;45.554;11.812;2023-04-24T09:54:02;23.10;76.00
71672;DHT22;67659;45.554;11.812;2023-04-24T09:56:33;23.10;75.80
71672;DHT22;67659;45.554;11.812;2023-04-24T09:59:07;23.10;75.80
71672;DHT22;67659;45.554;11.812;2023-04-24T10:01:34;23.20;75.80
71672;DHT22;67659;45.554;11.812;2023-04-24T10:04:00;23.10;75.60
71672;DHT22;67659;45.554;11.812;2023-04-24T10:06:35;23.20;75.60
71672;DHT22;67659;45.554;11.812;2023-04-24T10:09:02;23.20;76.20
71672;DHT22;67659;45.554;11.812;2023-04-24T10:11:30;23.20;76.10
71672;DHT22;67659;45.554;11.812;2023-04-24T10:13:56;23.10;76.00
71672;DHT22;67659;45.554;11.812;2023-04-24T10:16:23;23.20;75.70
71672;DHT22;67659;45.554;11.812;2023-04-24T10:18:50;23.20;75.40
71672;DHT22;67659;45.554;11.812;2023-04-24T10:21:17;23.20;75.70
71672;DHT22;67659;45.554;11.812;2023-04-24T10:23:44;23.20;75.60
71672;DHT22;67659;45.554;11.812;2023-04-24T10:26:13;23.20;75.50
71672;DHT22;67659;45.554;11.812;2023-04-24T10:28:45;23.20;75.60
71672;DHT22;67659;45.554;11.812;2023-04-24T10:31:13;23.20;75.50
71672;DHT22;67659;45.554;11.812;2023-04-24T10:33:42;23.20;75.70
71672;DHT22;67659;45.554;11.812;2023-04-24T10:36:10;23.20;75.60
71672;DHT22;67659;45.554;11.812;2023-04-24T10:38:39;23.20;75.60
71672;DHT22;67659;45.554;11.812;2023-04-24T10:41:09;23.20;75.90
71672;DHT22;67659;45.554;11.812;2023-04-24T10:43:36;23.30;75.90
71672;DHT22;67659;45.554;11.812;2023-04-24T10:46:04;23.30;76.00
71672;DHT22;67659;45.554;11.812;2023-04-24T10:48:31;23.30;76.10
71672;DHT22;67659;45.554;11.812;2023-04-24T10:50:58;23.30;76.10
71672;DHT22;67659;45.554;11.812;2023-04-24T10:53:28;23.20;76.40
71672;DHT22;67659;45.554;11.812;2023-04-24T10:56:04;23.30;76.30
71672;DHT22;67659;45.554;11.812;2023-04-24T10:58:41;23.30;76.50
71672;DHT22;67659;45.554;11.812;2023-04-24T11:01:28;23.40;76.50
71672;DHT22;67659;45.554;11.812;2023-04-24T11:03:57;23.40;78.00
71672;DHT22;67659;45.554;11.812;2023-04-24T11:06:34;23.40;77.30
71672;DHT22;67659;45.554;11.812;2023-04-24T11:09:10;23.40;77.70
71672;DHT22;67659;45.554;11.812;2023-04-24T11:11:38;23.40;77.30
71672;DHT22;67659;45.554;11.812;2023-04-24T11:14:10;23.40;76.90
71672;DHT22;67659;45.554;11.812;2023-04-24T11:16:47;23.40;76.80
71672;DHT22;67659;45.554;11.812;2023-04-24T11:19:20;23.40;76.80
71672;DHT22;67659;45.554;11.812;2023-04-24T11:21:58;23.40;76.70
71672;DHT22;67659;45.554;11.812;2023-04-24T11:24:29;23.30;76.70
71672;DHT22;67659;45.554;11.812;2023-04-24T11:26:58;23.40;76.60
71672;DHT22;67659;45.554;11.812;2023-04-24T11:29:38;23.40;76.60
71672;DHT22;67659;45.554;11.812;2023-04-24T11:32:16;23.30;76.50
71672;DHT22;67659;45.554;11.812;2023-04-24T11:34:51;23.30;76.50
71672;DHT22;67659;45.554;11.812;2023-04-24T11:37:17;23.30;76.60
71672;DHT22;67659;45.554;11.812;2023-04-24T11:39:43;23.30;76.70
71672;DHT22;67659;45.554;11.812;2023-04-24T11:42:09;23.40;76.50
71672;DHT22;67659;45.554;11.812;2023-04-24T11:44:35;23.30;76.60
71672;DHT22;67659;45.554;11.812;2023-04-24T11:47:05;23.40;76.60
71672;DHT22;67659;45.554;11.812;2023-04-24T11:49:32;23.30;76.10
71672;DHT22;67659;45.554;11.812;2023-04-24T11:52:00;23.40;76.40
71672;DHT22;67659;45.554;11.812;2023-04-24T11:54:27;23.30;76.00
71672;DHT22;67659;45.554;11.812;2023-04-24T11:56:53;23.30;76.00
71672;DHT22;67659;45.554;11.812;2023-04-24T11:59:19;23.30;75.90
71672;DHT22;67659;45.554;11.812;2023-04-24T12:01:46;23.30;75.90
71672;DHT22;67659;45.554;11.812;2023-04-24T12:04:13;23.30;75.60
71672;DHT22;67659;45.554;11.812;2023-04-24T12:06:40;23.30;75.70
71672;DHT22;67659;45.554;11.812;2023-04-24T12:09:08;23.30;75.60
71672;DHT22;67659;45.554;11.812;2023-04-24T12:11:34;23.30;75.70
71672;DHT22;67659;45.554;11.812;2023-04-24T12:14:10;23.30;75.40
71672;DHT22;67659;45.554;11.812;2023-04-24T12:16:36;23.30;75.20
71672;DHT22;67659;45.554;11.812;2023-04-24T12:19:04;23.30;75.20
71672;DHT22;67659;45.554;11.812;2023-04-24T12:21:31;23.30;75.20
71672;DHT22;67659;45.554;11.812;2023-04-24T12:23:58;23.30;75.10
71672;DHT22;67659;45.554;11.812;2023-04-24T12:26:24;23.30;75.20
71672;DHT22;67659;45.554;11.812;2023-04-24T12:28:51;23.40;75.40
71672;DHT22;67659;45.554;11.812;2023-04-24T12:31:17;23.40;75.20
71672;DHT22;67659;45.554;11.812;2023-04-24T12:33:43;23.40;75.10
71672;DHT22;67659;45.554;11.812;2023-04-24T12:36:14;23.30;75.10
71672;DHT22;67659;45.554;11.812;2023-04-24T12:38:43;23.30;75.20
71672;DHT22;67659;45.554;11.812;2023-04-24T12:41:12;23.40;75.10
71672;DHT22;67659;45.554;11.812;2023-04-24T12:43:38;23.30;75.30
71672;DHT22;67659;45.554;11.812;2023-04-24T12:46:05;23.30;75.20
71672;DHT22;67659;45.554;11.812;2023-04-24T12:48:31;23.40;75.40
71672;DHT22;67659;45.554;11.812;2023-04-24T12:50:58;23.40;75.20
71672;DHT22;67659;45.554;11.812;2023-04-24T12:53:27;23.40;75.20
71672;DHT22;67659;45.554;11.812;2023-04-24T12:55:55;23.40;75.00
71672;DHT22;67659;45.554;11.812;2023-04-24T12:58:21;23.30;75.20
71672;DHT22;67659;45.554;11.812;2023-04-24T13:00:48;23.40;75.10
71672;DHT22;67659;45.554;11.812;2023-04-24T13:05:43;23.30;75.10
71672;DHT22;67659;45.554;11.812;2023-04-24T13:08:09;23.30;75.20
71672;DHT22;67659;45.554;11.812;2023-04-24T13:10:35;23.40;75.00
71672;DHT22;67659;45.554;11.812;2023-04-24T13:13:02;23.40;75.00
71672;DHT22;67659;45.554;11.812;2023-04-24T13:15:28;23.40;74.90
71672;DHT22;67659;45.554;11.812;2023-04-24T13:17:55;23.40;74.90
71672;DHT22;67659;45.554;11.812;2023-04-24T13:20:21;23.50;75.10
71672;DHT22;67659;45.554;11.812;2023-04-24T13:22:48;23.40;75.10
71672;DHT22;67659;45.554;11.812;2023-04-24T13:25:14;23.40;75.00
71672;DHT22;67659;45.554;11.812;2023-04-24T13:27:42;23.50;75.00
71672;DHT22;67659;45.554;11.812;2023-04-24T13:30:11;23.40;74.90
71672;DHT22;67659;45.554;11.812;2023-04-24T13:32:37;23.40;74.90
71672;DHT22;67659;45.554;11.812;2023-04-24T13:35:03;23.40;74.70
71672;DHT22;67659;45.554;11.812;2023-04-24T13:37:29;23.40;74.80
71672;DHT22;67659;45.554;11.812;2023-04-24T13:39:55;23.40;74.80
71672;DHT22;67659;45.554;11.812;2023-04-24T13:42:21;23.40;74.80
71672;DHT22;67659;45.554;11.812;2023-04-24T13:44:47;23.40;74.70
71672;DHT22;67659;45.554;11.812;2023-04-24T13:47:13;23.40;74.70
71672;DHT22;67659;45.554;11.812;2023-04-24T13:49:39;23.40;74.70
71672;DHT22;67659;45.554;11.812;2023-04-24T13:52:05;23.30;73.30
71672;DHT22;67659;45.554;11.812;2023-04-24T13:54:31;23.00;73.40
71672;DHT22;67659;45.554;11.812;2023-04-24T13:56:57;22.90;73.60
71672;DHT22;67659;45.554;11.812;2023-04-24T13:59:24;22.70;73.60
71672;DHT22;67659;45.554;11.812;2023-04-24T14:01:50;22.50;73.00
71672;DHT22;67659;45.554;11.812;2023-04-24T14:04:19;22.40;72.60
71672;DHT22;67659;45.554;11.812;2023-04-24T14:06:45;22.50;72.80
71672;DHT22;67659;45.554;11.812;2023-04-24T14:09:11;22.70;72.70
71672;DHT22;67659;45.554;11.812;2023-04-24T14:11:38;22.40;73.40
71672;DHT22;67659;45.554;11.812;2023-04-24T14:14:05;22.40;73.00
71672;DHT22;67659;45.554;11.812;2023-04-24T14:16:31;22.40;73.10
71672;DHT22;67659;45.554;11.812;2023-04-24T14:18:57;22.40;73.10
71672;DHT22;67659;45.554;11.812;2023-04-24T14:21:23;22.50;73.50
71672;DHT22;67659;45.554;11.812;2023-04-24T14:23:48;22.50;73.30
71672;DHT22;67659;45.554;11.812;2023-04-24T14:26:14;22.70;73.10
71672;DHT22;67659;45.554;11.812;2023-04-24T14:28:40;22.60;73.40
71672;DHT22;67659;45.554;11.812;2023-04-24T14:31:06;22.60;73.20
71672;DHT22;67659;45.554;11.812;2023-04-24T14:33:33;22.70;73.20
71672;DHT22;67659;45.554;11.812;2023-04-24T14:35:59;22.70;73.00
71672;DHT22;67659;45.554;11.812;2023-04-24T14:38:25;22.70;73.20
71672;DHT22;67659;45.554;11.812;2023-04-24T14:40:51;22.70;73.10
71672;DHT22;67659;45.554;11.812;2023-04-24T14:43:17;22.70;72.90
71672;DHT22;67659;45.554;11.812;2023-04-24T14:45:42;22.60;72.70
71672;DHT22;67659;45.554;11.812;2023-04-24T14:48:08;22.50;72.60
71672;DHT22;67659;45.554;11.812;2023-04-24T14:50:35;22.50;72.70
71672;DHT22;67659;45.554;11.812;2023-04-24T14:53:01;22.40;72.40
71672;DHT22;67659;45.554;11.812;2023-04-24T14:55:28;22.20;72.90
71672;DHT22;67659;45.554;11.812;2023-04-24T14:57:54;22.30;72.80
71672;DHT22;67659;45.554;11.812;2023-04-24T15:00:21;22.40;72.80
71672;DHT22;67659;45.554;11.812;2023-04-24T15:02:48;22.50;73.00
71672;DHT22;67659;45.554;11.812;2023-04-24T15:05:14;22.50;73.00
71672;DHT22;67659;45.554;11.812;2023-04-24T15:07:40;22.60;72.80
71672;DHT22;67659;45.554;11.812;2023-04-24T15:10:07;22.60;72.80
71672;DHT22;67659;45.554;11.812;2023-04-24T15:12:33;22.70;72.90
71672;DHT22;67659;45.554;11.812;2023-04-24T15:14:59;22.70;72.80
71672;DHT22;67659;45.554;11.812;2023-04-24T15:17:26;22.80;72.90
71672;DHT22;67659;45.554;11.812;2023-04-24T15:19:52;22.80;72.80